sensor_id;sensor_type;location;lat;lon;timestamp;temperature;humidity
75430;DHT22;64127;51.488;5.462;2023-06-04T00:02:31;17.40;57.00
75430;DHT22;64127;51.488;5.462;2023-06-04T00:05:04;17.30;57.10
75430;DHT22;64127;51.488;5.462;2023-06-04T00:07:36;17.30;57.20
75430;DHT22;64127;51.488;5.462;2023-06-04T00:10:09;17.30;57.40
75430;DHT22;64127;51.488;5.462;2023-06-04T00:12:41;17.30;57.50
75430;DHT22;64127;51.488;5.462;2023-06-04T00:15:14;17.20;57.60
75430;DHT22;64127;51.488;5.462;2023-06-04T00:17:48;17.20;57.80
75430;DHT22;64127;51.488;5.462;2023-06-04T00:20:20;17.20;57.90
75430;DHT22;64127;51.488;5.462;2023-06-04T00:22:52;17.20;58.10
75430;DHT22;64127;51.488;5.462;2023-06-04T00:25:24;17.20;58.10
75430;DHT22;64127;51.488;5.462;2023-06-04T00:27:56;17.20;58.10
75430;DHT22;64127;51.488;5.462;2023-06-04T00:30:28;17.10;58.40
75430;DHT22;64127;51.488;5.462;2023-06-04T00:33:01;17.20;58.70
75430;DHT22;64127;51.488;5.462;2023-06-04T00:35:33;17.10;58.80
75430;DHT22;64127;51.488;5.462;2023-06-04T00:38:05;17.10;59.00
75430;DHT22;64127;51.488;5.462;2023-06-04T00:40:37;17.10;59.20
75430;DHT22;64127;51.488;5.462;2023-06-04T00:43:09;17.10;59.40
75430;DHT22;64127;51.488;5.462;2023-06-04T00:45:42;17.00;59.50
75430;DHT22;64127;51.488;5.462;2023-06-04T00:48:15;17.00;59.80
75430;DHT22;64127;51.488;5.462;2023-06-04T00:50:47;17.00;59.80
75430;DHT22;64127;51.488;5.462;2023-06-04T00:53:21;16.90;60.00
75430;DHT22;64127;51.488;5.462;2023-06-04T00:55:55;16.90;60.10
75430;DHT22;64127;51.488;5.462;2023-06-04T00:58:27;16.90;60.40
75430;DHT22;64127;51.488;5.462;2023-06-04T01:01:02;16.80;60.50
75430;DHT22;64127;51.488;5.462;2023-06-04T01:03:42;16.80;61.00
75430;DHT22;64127;51.488;5.462;2023-06-04T01:06:36;16.80;61.40
75430;DHT22;64127;51.488;5.462;2023-06-04T01:09:11;16.70;61.60
75430;DHT22;64127;51.488;5.462;2023-06-04T01:11:44;16.70;61.70
75430;DHT22;64127;51.488;5.462;2023-06-04T01:14:16;16.60;61.90
75430;DHT22;64127;51.488;5.462;2023-06-04T01:23:28;16.50;62.50
75430;DHT22;64127;51.488;5.462;2023-06-04T01:26:06;16.50;62.80
75430;DHT22;64127;51.488;5.462;2023-06-04T01:28:38;16.50;63.10
75430;DHT22;64127;51.488;5.462;2023-06-04T01:31:11;16.40;63.20
75430;DHT22;64127;51.488;5.462;2023-06-04T01:33:44;16.40;63.60
75430;DHT22;64127;51.488;5.462;2023-06-04T01:36:16;16.40;63.70
75430;DHT22;64127;51.488;5.462;2023-06-04T01:38:49;16.40;64.00
75430;DHT22;64127;51.488;5.462;2023-06-04T01:41:22;16.30;64.40
75430;DHT22;64127;51.488;5.462;2023-06-04T01:43:54;16.30;64.20
75430;DHT22;64127;51.488;5.462;2023-06-04T01:46:26;16.30;64.50
75430;DHT22;64127;51.488;5.462;2023-06-04T01:48:58;16.30;64.60
75430;DHT22;64127;51.488;5.462;2023-06-04T01:51:30;16.20;64.80
75430;DHT22;64127;51.488;5.462;2023-06-04T01:54:02;16.20;65.00
75430;DHT22;64127;51.488;5.462;2023-06-04T01:56:34;16.10;65.10
75430;DHT22;64127;51.488;5.462;2023-06-04T01:59:06;16.10;65.40
75430;DHT22;64127;51.488;5.462;2023-06-04T02:01:39;16.10;65.70
75430;DHT22;64127;51.488;5.462;2023-06-04T02:04:11;16.00;65.90
75430;DHT22;64127;51.488;5.462;2023-06-04T02:06:43;16.00;66.20
75430;DHT22;64127;51.488;5.462;2023-06-04T02:09:15;16.00;66.40
75430;DHT22;64127;51.488;5.462;2023-06-04T02:11:47;15.90;66.60
75430;DHT22;64127;51.488;5.462;2023-06-04T02:14:19;15.90;66.80
75430;DHT22;64127;51.488;5.462;2023-06-04T02:16:51;15.90;67.10
75430;DHT22;64127;51.488;5.462;2023-06-04T02:19:29;15.80;67.30
75430;DHT22;64127;51.488;5.462;2023-06-04T02:22:01;15.80;67.60
75430;DHT22;64127;51.488;5.462;2023-06-04T02:24:33;15.70;67.40
75430;DHT22;64127;51.488;5.462;2023-06-04T02:27:06;15.80;67.60
75430;DHT22;64127;51.488;5.462;2023-06-04T02:29:40;15.70;68.00
75430;DHT22;64127;51.488;5.462;2023-06-04T02:32:12;15.70;68.20
75430;DHT22;64127;51.488;5.462;2023-06-04T02:34:44;15.70;68.50
75430;DHT22;64127;51.488;5.462;2023-06-04T02:37:16;15.60;68.60
75430;DHT22;64127;51.488;5.462;2023-06-04T02:39:49;15.60;68.90
75430;DHT22;64127;51.488;5.462;2023-06-04T02:42:21;15.50;69.10
75430;DHT22;64127;51.488;5.462;2023-06-04T02:44:53;15.50;69.30
75430;DHT22;64127;51.488;5.462;2023-06-04T02:47:25;15.50;69.60
75430;DHT22;64127;51.488;5.462;2023-06-04T02:49:57;15.40;69.90
75430;DHT22;64127;51.488;5.462;2023-06-04T02:52:29;15.40;70.10
75430;DHT22;64127;51.488;5.462;2023-06-04T02:55:03;15.30;70.30
75430;DHT22;64127;51.488;5.462;2023-06-04T02:57:36;15.30;70.60
75430;DHT22;64127;51.488;5.462;2023-06-04T03:00:10;15.30;70.80
75430;DHT22;64127;51.488;5.462;2023-06-04T03:02:46;15.20;70.90
75430;DHT22;64127;51.488;5.462;2023-06-04T03:05:19;15.20;71.20
75430;DHT22;64127;51.488;5.462;2023-06-04T03:07:51;15.10;71.30
75430;DHT22;64127;51.488;5.462;2023-06-04T03:10:23;15.10;71.60
75430;DHT22;64127;51.488;5.462;2023-06-04T03:12:55;15.10;71.80
75430;DHT22;64127;51.488;5.462;2023-06-04T03:15:27;15.10;72.00
75430;DHT22;64127;51.488;5.462;2023-06-04T03:17:59;15.10;72.40
75430;DHT22;64127;51.488;5.462;2023-06-04T03:20:31;15.00;72.30
75430;DHT22;64127;51.488;5.462;2023-06-04T03:23:10;15.00;72.40
75430;DHT22;64127;51.488;5.462;2023-06-04T03:25:42;15.00;72.60
75430;DHT22;64127;51.488;5.462;2023-06-04T03:28:14;14.90;72.80
75430;DHT22;64127;51.488;5.462;2023-06-04T03:30:46;14.90;73.10
75430;DHT22;64127;51.488;5.462;2023-06-04T03:33:18;14.80;73.20
75430;DHT22;64127;51.488;5.462;2023-06-04T03:35:51;14.80;73.50
75430;DHT22;64127;51.488;5.462;2023-06-04T03:38:24;14.80;73.70
75430;DHT22;64127;51.488;5.462;2023-06-04T03:40:56;14.70;73.80
75430;DHT22;64127;51.488;5.462;2023-06-04T03:43:29;14.70;74.10
75430;DHT22;64127;51.488;5.462;2023-06-04T03:46:01;14.70;74.30
75430;DHT22;64127;51.488;5.462;2023-06-04T03:48:33;14.70;74.50
75430;DHT22;64127;51.488;5.462;2023-06-04T03:51:05;14.70;74.80
75430;DHT22;64127;51.488;5.462;2023-06-04T03:53:37;14.60;74.80
75430;DHT22;64127;51.488;5.462;2023-06-04T03:56:09;14.60;75.00
75430;DHT22;64127;51.488;5.462;2023-06-04T03:58:41;14.60;75.10
75430;DHT22;64127;51.488;5.462;2023-06-04T04:01:14;14.60;75.20
75430;DHT22;64127;51.488;5.462;2023-06-04T04:03:46;14.60;75.40
75430;DHT22;64127;51.488;5.462;2023-06-04T04:06:21;14.60;75.60
75430;DHT22;64127;51.488;5.462;2023-06-04T04:08:53;14.60;75.80
75430;DHT22;64127;51.488;5.462;2023-06-04T04:11:25;14.60;75.90
75430;DHT22;64127;51.488;5.462;2023-06-04T04:13:57;14.60;76.20
75430;DHT22;64127;51.488;5.462;2023-06-04T04:16:29;14.60;76.50
75430;DHT22;64127;51.488;5.462;2023-06-04T04:19:02;14.60;76.70
75430;DHT22;64127;51.488;5.462;2023-06-04T04:21:35;14.60;76.80
75430;DHT22;64127;51.488;5.462;2023-06-04T04:24:10;14.60;77.00
75430;DHT22;64127;51.488;5.462;2023-06-04T04:26:56;14.60;77.10
75430;DHT22;64127;51.488;5.462;2023-06-04T04:29:31;14.60;77.10
75430;DHT22;64127;51.488;5.462;2023-06-04T04:32:06;14.60;77.10
75430;DHT22;64127;51.488;5.462;2023-06-04T04:34:53;14.60;77.20
75430;DHT22;64127;51.488;5.462;2023-06-04T04:37:27;14.60;77.50
75430;DHT22;64127;51.488;5.462;2023-06-04T04:39:59;14.60;77.50
75430;DHT22;64127;51.488;5.462;2023-06-04T04:42:31;14.60;77.40
75430;DHT22;64127;51.488;5.462;2023-06-04T04:45:03;14.70;77.50
75430;DHT22;64127;51.488;5.462;2023-06-04T04:47:36;14.70;77.50
75430;DHT22;64127;51.488;5.462;2023-06-04T04:50:08;14.70;77.50
75430;DHT22;64127;51.488;5.462;2023-06-04T04:52:41;14.70;77.60
75430;DHT22;64127;51.488;5.462;2023-06-04T04:55:13;14.80;77.60
75430;DHT22;64127;51.488;5.462;2023-06-04T04:57:45;14.80;77.80
75430;DHT22;64127;51.488;5.462;2023-06-04T05:00:17;14.80;77.60
75430;DHT22;64127;51.488;5.462;2023-06-04T05:02:49;14.90;77.70
75430;DHT22;64127;51.488;5.462;2023-06-04T05:05:22;14.90;77.70
75430;DHT22;64127;51.488;5.462;2023-06-04T05:07:54;14.90;77.70
75430;DHT22;64127;51.488;5.462;2023-06-04T05:10:26;15.00;77.80
75430;DHT22;64127;51.488;5.462;2023-06-04T05:12:59;14.90;77.60
75430;DHT22;64127;51.488;5.462;2023-06-04T05:15:36;15.00;77.60
75430;DHT22;64127;51.488;5.462;2023-06-04T05:18:08;15.10;77.40
75430;DHT22;64127;51.488;5.462;2023-06-04T05:20:40;15.10;77.30
75430;DHT22;64127;51.488;5.462;2023-06-04T05:23:13;15.20;77.40
75430;DHT22;64127;51.488;5.462;2023-06-04T05:25:45;15.30;77.30
75430;DHT22;64127;51.488;5.462;2023-06-04T05:28:17;15.30;77.00
75430;DHT22;64127;51.488;5.462;2023-06-04T05:30:51;15.40;76.90
75430;DHT22;64127;51.488;5.462;2023-06-04T05:33:23;15.40;76.80
75430;DHT22;64127;51.488;5.462;2023-06-04T05:35:55;15.50;76.70
75430;DHT22;64127;51.488;5.462;2023-06-04T05:38:29;15.60;76.60
75430;DHT22;64127;51.488;5.462;2023-06-04T05:41:02;15.70;76.40
75430;DHT22;64127;51.488;5.462;2023-06-04T05:43:34;15.80;76.20
75430;DHT22;64127;51.488;5.462;2023-06-04T05:46:06;16.00;76.20
75430;DHT22;64127;51.488;5.462;2023-06-04T05:48:39;16.10;75.90
75430;DHT22;64127;51.488;5.462;2023-06-04T05:51:13;16.20;75.70
75430;DHT22;64127;51.488;5.462;2023-06-04T05:53:46;16.30;75.60
75430;DHT22;64127;51.488;5.462;2023-06-04T05:56:18;16.40;75.10
75430;DHT22;64127;51.488;5.462;2023-06-04T05:58:53;16.50;74.90
75430;DHT22;64127;51.488;5.462;2023-06-04T06:01:25;16.50;74.60
75430;DHT22;64127;51.488;5.462;2023-06-04T06:03:57;16.60;74.50
75430;DHT22;64127;51.488;5.462;2023-06-04T06:06:30;16.70;74.10
75430;DHT22;64127;51.488;5.462;2023-06-04T06:09:02;16.80;74.00
75430;DHT22;64127;51.488;5.462;2023-06-04T06:11:34;17.00;73.80
75430;DHT22;64127;51.488;5.462;2023-06-04T06:14:06;17.10;73.50
75430;DHT22;64127;51.488;5.462;2023-06-04T06:16:38;17.20;73.30
75430;DHT22;64127;51.488;5.462;2023-06-04T06:19:10;17.30;73.00
75430;DHT22;64127;51.488;5.462;2023-06-04T06:21:42;17.40;72.90
75430;DHT22;64127;51.488;5.462;2023-06-04T06:24:14;17.50;72.60
75430;DHT22;64127;51.488;5.462;2023-06-04T06:26:46;17.70;72.50
75430;DHT22;64127;51.488;5.462;2023-06-04T06:29:18;17.80;72.10
75430;DHT22;64127;51.488;5.462;2023-06-04T06:31:51;17.80;71.50
75430;DHT22;64127;51.488;5.462;2023-06-04T06:34:23;17.90;71.00
75430;DHT22;64127;51.488;5.462;2023-06-04T06:36:55;18.00;70.70
75430;DHT22;64127;51.488;5.462;2023-06-04T06:39:27;18.10;70.00
75430;DHT22;64127;51.488;5.462;2023-06-04T06:41:59;18.20;70.10
75430;DHT22;64127;51.488;5.462;2023-06-04T06:44:31;18.40;69.90
75430;DHT22;64127;51.488;5.462;2023-06-04T06:47:03;18.50;69.70
75430;DHT22;64127;51.488;5.462;2023-06-04T06:49:35;18.60;69.10
75430;DHT22;64127;51.488;5.462;2023-06-04T06:52:08;18.80;68.90
75430;DHT22;64127;51.488;5.462;2023-06-04T06:54:41;18.90;68.40
75430;DHT22;64127;51.488;5.462;2023-06-04T06:57:13;19.00;68.10
75430;DHT22;64127;51.488;5.462;2023-06-04T06:59:45;19.10;67.80
75430;DHT22;64127;51.488;5.462;2023-06-04T07:02:17;19.20;67.70
75430;DHT22;64127;51.488;5.462;2023-06-04T07:04:49;19.40;67.60
75430;DHT22;64127;51.488;5.462;2023-06-04T07:07:21;19.50;66.90
75430;DHT22;64127;51.488;5.462;2023-06-04T07:09:53;19.60;66.20
75430;DHT22;64127;51.488;5.462;2023-06-04T07:12:25;19.70;65.80
75430;DHT22;64127;51.488;5.462;2023-06-04T07:14:57;19.90;65.40
75430;DHT22;64127;51.488;5.462;2023-06-04T07:17:29;20.00;64.40
75430;DHT22;64127;51.488;5.462;2023-06-04T07:20:02;20.10;64.10
75430;DHT22;64127;51.488;5.462;2023-06-04T07:22:38;20.10;63.60
75430;DHT22;64127;51.488;5.462;2023-06-04T07:25:10;20.20;63.00
75430;DHT22;64127;51.488;5.462;2023-06-04T07:27:43;20.30;62.60
75430;DHT22;64127;51.488;5.462;2023-06-04T07:30:15;20.40;62.40
75430;DHT22;64127;51.488;5.462;2023-06-04T07:32:50;20.50;61.80
75430;DHT22;64127;51.488;5.462;2023-06-04T07:35:23;20.60;61.20
75430;DHT22;64127;51.488;5.462;2023-06-04T07:37:55;20.70;60.70
75430;DHT22;64127;51.488;5.462;2023-06-04T07:40:27;20.80;60.00
75430;DHT22;64127;51.488;5.462;2023-06-04T07:42:59;20.90;59.30
75430;DHT22;64127;51.488;5.462;2023-06-04T07:45:31;21.00;59.00
75430;DHT22;64127;51.488;5.462;2023-06-04T07:48:08;21.10;58.50
75430;DHT22;64127;51.488;5.462;2023-06-04T07:50:42;21.20;58.20
75430;DHT22;64127;51.488;5.462;2023-06-04T07:53:14;21.30;58.10
75430;DHT22;64127;51.488;5.462;2023-06-04T07:55:46;21.50;58.00
75430;DHT22;64127;51.488;5.462;2023-06-04T07:58:18;21.60;57.60
75430;DHT22;64127;51.488;5.462;2023-06-04T08:00:50;21.70;57.20
75430;DHT22;64127;51.488;5.462;2023-06-04T08:03:22;21.90;56.70
75430;DHT22;64127;51.488;5.462;2023-06-04T08:05:55;22.00;56.30
75430;DHT22;64127;51.488;5.462;2023-06-04T08:08:27;22.00;56.10
75430;DHT22;64127;51.488;5.462;2023-06-04T08:10:59;22.20;56.10
75430;DHT22;64127;51.488;5.462;2023-06-04T08:13:31;22.20;55.90
75430;DHT22;64127;51.488;5.462;2023-06-04T08:16:03;22.30;56.40
75430;DHT22;64127;51.488;5.462;2023-06-04T08:18:39;22.40;55.60
75430;DHT22;64127;51.488;5.462;2023-06-04T08:21:12;22.60;55.10
75430;DHT22;64127;51.488;5.462;2023-06-04T08:23:44;22.70;54.70
75430;DHT22;64127;51.488;5.462;2023-06-04T08:26:16;22.80;54.20
75430;DHT22;64127;51.488;5.462;2023-06-04T08:28:50;23.00;53.90
75430;DHT22;64127;51.488;5.462;2023-06-04T08:31:22;23.10;53.80
75430;DHT22;64127;51.488;5.462;2023-06-04T08:33:54;23.20;53.30
75430;DHT22;64127;51.488;5.462;2023-06-04T08:36:27;23.30;52.90
75430;DHT22;64127;51.488;5.462;2023-06-04T08:38:59;23.50;52.80
75430;DHT22;64127;51.488;5.462;2023-06-04T08:42:06;23.50;52.60
75430;DHT22;64127;51.488;5.462;2023-06-04T08:44:43;23.70;52.70
75430;DHT22;64127;51.488;5.462;2023-06-04T08:47:16;23.70;52.80
75430;DHT22;64127;51.488;5.462;2023-06-04T08:49:52;23.70;52.50
75430;DHT22;64127;51.488;5.462;2023-06-04T08:52:27;23.70;52.30
75430;DHT22;64127;51.488;5.462;2023-06-04T08:54:59;23.70;52.20
75430;DHT22;64127;51.488;5.462;2023-06-04T08:57:31;23.70;52.20
75430;DHT22;64127;51.488;5.462;2023-06-04T09:00:04;23.70;51.70
75430;DHT22;64127;51.488;5.462;2023-06-04T09:02:39;23.70;51.20
75430;DHT22;64127;51.488;5.462;2023-06-04T09:05:18;23.70;50.60
75430;DHT22;64127;51.488;5.462;2023-06-04T09:07:53;23.70;49.90
75430;DHT22;64127;51.488;5.462;2023-06-04T09:10:29;23.70;49.70
75430;DHT22;64127;51.488;5.462;2023-06-04T09:13:03;23.70;49.60
75430;DHT22;64127;51.488;5.462;2023-06-04T09:15:40;23.70;49.30
75430;DHT22;64127;51.488;5.462;2023-06-04T09:18:12;23.80;49.10
75430;DHT22;64127;51.488;5.462;2023-06-04T09:20:44;23.90;49.30
75430;DHT22;64127;51.488;5.462;2023-06-04T09:23:16;23.90;49.30
75430;DHT22;64127;51.488;5.462;2023-06-04T09:25:49;24.00;49.10
75430;DHT22;64127;51.488;5.462;2023-06-04T09:28:23;24.00;48.70
75430;DHT22;64127;51.488;5.462;2023-06-04T09:31:01;24.10;48.60
75430;DHT22;64127;51.488;5.462;2023-06-04T09:33:48;24.20;48.30
75430;DHT22;64127;51.488;5.462;2023-06-04T09:36:21;24.30;47.50
75430;DHT22;64127;51.488;5.462;2023-06-04T09:38:53;24.30;47.20
75430;DHT22;64127;51.488;5.462;2023-06-04T09:41:25;24.30;47.00
75430;DHT22;64127;51.488;5.462;2023-06-04T09:44:02;24.40;46.80
75430;DHT22;64127;51.488;5.462;2023-06-04T09:46:35;24.40;46.50
75430;DHT22;64127;51.488;5.462;2023-06-04T09:49:07;24.40;46.30
75430;DHT22;64127;51.488;5.462;2023-06-04T09:51:47;24.50;45.90
75430;DHT22;64127;51.488;5.462;2023-06-04T09:54:22;24.50;45.90
75430;DHT22;64127;51.488;5.462;2023-06-04T09:56:54;24.60;45.90
75430;DHT22;64127;51.488;5.462;2023-06-04T09:59:26;24.60;45.90
75430;DHT22;64127;51.488;5.462;2023-06-04T10:02:00;24.60;45.90
75430;DHT22;64127;51.488;5.462;2023-06-04T10:04:34;24.60;46.50
75430;DHT22;64127;51.488;5.462;2023-06-04T10:07:09;24.70;45.80
75430;DHT22;64127;51.488;5.462;2023-06-04T10:09:43;24.80;45.20
75430;DHT22;64127;51.488;5.462;2023-06-04T10:12:25;24.80;44.70
75430;DHT22;64127;51.488;5.462;2023-06-04T10:15:05;24.90;44.60
75430;DHT22;64127;51.488;5.462;2023-06-04T10:17:42;25.00;44.50
75430;DHT22;64127;51.488;5.462;2023-06-04T10:20:15;25.10;44.40
75430;DHT22;64127;51.488;5.462;2023-06-04T10:22:49;25.10;44.00
75430;DHT22;64127;51.488;5.462;2023-06-04T10:25:22;25.20;44.00
75430;DHT22;64127;51.488;5.462;2023-06-04T10:27:54;25.20;43.80
75430;DHT22;64127;51.488;5.462;2023-06-04T10:30:27;25.30;43.80
75430;DHT22;64127;51.488;5.462;2023-06-04T10:32:59;25.30;43.50
75430;DHT22;64127;51.488;5.462;2023-06-04T10:35:35;25.30;43.30
75430;DHT22;64127;51.488;5.462;2023-06-04T10:38:09;25.40;43.10
75430;DHT22;64127;51.488;5.462;2023-06-04T10:40:43;25.40;43.60
75430;DHT22;64127;51.488;5.462;2023-06-04T10:43:15;25.50;43.50
75430;DHT22;64127;51.488;5.462;2023-06-04T10:45:48;25.40;42.80
75430;DHT22;64127;51.488;5.462;2023-06-04T10:48:20;25.50;43.20
75430;DHT22;64127;51.488;5.462;2023-06-04T10:50:52;25.50;43.40
75430;DHT22;64127;51.488;5.462;2023-06-04T10:53:25;25.70;43.50
75430;DHT22;64127;51.488;5.462;2023-06-04T10:56:08;25.80;43.20
75430;DHT22;64127;51.488;5.462;2023-06-04T10:58:41;25.90;42.80
75430;DHT22;64127;51.488;5.462;2023-06-04T11:01:23;26.00;42.70
75430;DHT22;64127;51.488;5.462;2023-06-04T11:04:03;26.00;42.10
75430;DHT22;64127;51.488;5.462;2023-06-04T11:06:35;26.00;42.10
75430;DHT22;64127;51.488;5.462;2023-06-04T11:09:13;26.10;42.10
75430;DHT22;64127;51.488;5.462;2023-06-04T11:11:59;26.00;41.90
75430;DHT22;64127;51.488;5.462;2023-06-04T11:14:32;26.10;42.00
75430;DHT22;64127;51.488;5.462;2023-06-04T11:17:11;26.10;41.90
75430;DHT22;64127;51.488;5.462;2023-06-04T11:19:44;26.10;41.50
75430;DHT22;64127;51.488;5.462;2023-06-04T11:22:16;26.20;41.50
75430;DHT22;64127;51.488;5.462;2023-06-04T11:24:48;26.20;41.50
75430;DHT22;64127;51.488;5.462;2023-06-04T11:27:21;26.30;41.50
75430;DHT22;64127;51.488;5.462;2023-06-04T11:30:07;26.40;41.50
75430;DHT22;64127;51.488;5.462;2023-06-04T11:32:40;26.50;41.20
75430;DHT22;64127;51.488;5.462;2023-06-04T11:35:12;26.50;41.10
75430;DHT22;64127;51.488;5.462;2023-06-04T11:37:53;26.50;40.80
75430;DHT22;64127;51.488;5.462;2023-06-04T11:40:26;26.60;40.90
75430;DHT22;64127;51.488;5.462;2023-06-04T11:42:58;26.60;40.90
75430;DHT22;64127;51.488;5.462;2023-06-04T11:45:30;26.60;40.90
75430;DHT22;64127;51.488;5.462;2023-06-04T11:48:06;26.60;41.20
75430;DHT22;64127;51.488;5.462;2023-06-04T11:50:42;26.60;41.10
75430;DHT22;64127;51.488;5.462;2023-06-04T11:53:15;26.60;41.20
75430;DHT22;64127;51.488;5.462;2023-06-04T11:55:48;26.60;41.20
75430;DHT22;64127;51.488;5.462;2023-06-04T11:58:20;26.70;41.20
75430;DHT22;64127;51.488;5.462;2023-06-04T12:00:52;26.70;41.20
75430;DHT22;64127;51.488;5.462;2023-06-04T12:03:41;26.80;41.30
75430;DHT22;64127;51.488;5.462;2023-06-04T12:06:16;26.80;41.30
75430;DHT22;64127;51.488;5.462;2023-06-04T12:08:54;26.80;41.20
75430;DHT22;64127;51.488;5.462;2023-06-04T12:11:31;26.80;41.00
75430;DHT22;64127;51.488;5.462;2023-06-04T12:14:05;26.90;41.10
75430;DHT22;64127;51.488;5.462;2023-06-04T12:16:38;26.90;41.10
75430;DHT22;64127;51.488;5.462;2023-06-04T12:19:13;26.90;41.10
75430;DHT22;64127;51.488;5.462;2023-06-04T12:21:45;26.90;41.10
75430;DHT22;64127;51.488;5.462;2023-06-04T12:24:17;26.90;41.10
75430;DHT22;64127;51.488;5.462;2023-06-04T12:26:49;26.90;41.20
75430;DHT22;64127;51.488;5.462;2023-06-04T12:29:34;26.90;41.50
75430;DHT22;64127;51.488;5.462;2023-06-04T12:32:08;27.00;41.40
75430;DHT22;64127;51.488;5.462;2023-06-04T12:34:44;27.00;41.40
75430;DHT22;64127;51.488;5.462;2023-06-04T12:37:16;27.00;41.70
75430;DHT22;64127;51.488;5.462;2023-06-04T12:39:48;27.00;41.80
75430;DHT22;64127;51.488;5.462;2023-06-04T12:42:21;27.10;42.50
75430;DHT22;64127;51.488;5.462;2023-06-04T12:44:54;27.10;41.80
75430;DHT22;64127;51.488;5.462;2023-06-04T12:47:26;27.10;41.90
75430;DHT22;64127;51.488;5.462;2023-06-04T12:49:58;27.20;41.90
75430;DHT22;64127;51.488;5.462;2023-06-04T12:52:32;27.30;42.00
75430;DHT22;64127;51.488;5.462;2023-06-04T12:55:04;27.30;42.00
75430;DHT22;64127;51.488;5.462;2023-06-04T12:57:37;27.30;41.80
75430;DHT22;64127;51.488;5.462;2023-06-04T13:00:09;27.20;41.60
75430;DHT22;64127;51.488;5.462;2023-06-04T13:02:42;27.20;41.90
75430;DHT22;64127;51.488;5.462;2023-06-04T13:05:14;27.30;42.00
75430;DHT22;64127;51.488;5.462;2023-06-04T13:07:47;27.40;42.10
75430;DHT22;64127;51.488;5.462;2023-06-04T13:10:19;27.40;42.00
75430;DHT22;64127;51.488;5.462;2023-06-04T13:12:51;27.40;42.00
75430;DHT22;64127;51.488;5.462;2023-06-04T13:15:23;27.40;41.90
75430;DHT22;64127;51.488;5.462;2023-06-04T13:17:55;27.40;41.90
75430;DHT22;64127;51.488;5.462;2023-06-04T13:20:27;27.50;41.90
75430;DHT22;64127;51.488;5.462;2023-06-04T13:22:59;27.50;42.00
75430;DHT22;64127;51.488;5.462;2023-06-04T13:25:31;27.60;42.40
75430;DHT22;64127;51.488;5.462;2023-06-04T13:28:07;27.50;41.70
75430;DHT22;64127;51.488;5.462;2023-06-04T13:30:40;27.50;41.70
75430;DHT22;64127;51.488;5.462;2023-06-04T13:33:12;27.60;41.60
75430;DHT22;64127;51.488;5.462;2023-06-04T13:35:44;27.60;41.50
75430;DHT22;64127;51.488;5.462;2023-06-04T13:38:17;27.60;41.50
75430;DHT22;64127;51.488;5.462;2023-06-04T13:40:49;27.70;41.60
75430;DHT22;64127;51.488;5.462;2023-06-04T13:43:21;27.80;41.50
75430;DHT22;64127;51.488;5.462;2023-06-04T13:45:53;27.80;41.50
75430;DHT22;64127;51.488;5.462;2023-06-04T13:48:25;27.90;41.70
75430;DHT22;64127;51.488;5.462;2023-06-04T13:50:58;28.00;41.70
75430;DHT22;64127;51.488;5.462;2023-06-04T13:53:30;28.10;41.70
75430;DHT22;64127;51.488;5.462;2023-06-04T13:56:02;28.10;41.40
75430;DHT22;64127;51.488;5.462;2023-06-04T13:58:34;28.00;41.30
75430;DHT22;64127;51.488;5.462;2023-06-04T14:01:06;27.90;41.20
75430;DHT22;64127;51.488;5.462;2023-06-04T14:03:39;27.90;41.40
75430;DHT22;64127;51.488;5.462;2023-06-04T14:06:12;27.90;41.40
75430;DHT22;64127;51.488;5.462;2023-06-04T14:08:44;28.00;41.10
75430;DHT22;64127;51.488;5.462;2023-06-04T14:11:16;28.00;40.90
75430;DHT22;64127;51.488;5.462;2023-06-04T14:13:48;28.00;40.90
75430;DHT22;64127;51.488;5.462;2023-06-04T14:16:20;28.00;41.10
75430;DHT22;64127;51.488;5.462;2023-06-04T14:18:52;28.00;41.30
75430;DHT22;64127;51.488;5.462;2023-06-04T14:21:24;28.00;41.20
75430;DHT22;64127;51.488;5.462;2023-06-04T14:23:57;28.00;41.00
75430;DHT22;64127;51.488;5.462;2023-06-04T14:26:30;28.00;40.90
75430;DHT22;64127;51.488;5.462;2023-06-04T14:29:02;28.00;40.90
75430;DHT22;64127;51.488;5.462;2023-06-04T14:31:34;28.00;40.90
75430;DHT22;64127;51.488;5.462;2023-06-04T14:34:06;28.00;40.90
75430;DHT22;64127;51.488;5.462;2023-06-04T14:36:40;28.00;40.90
75430;DHT22;64127;51.488;5.462;2023-06-04T14:39:12;28.10;41.00
75430;DHT22;64127;51.488;5.462;2023-06-04T14:41:44;28.10;41.00
75430;DHT22;64127;51.488;5.462;2023-06-04T14:44:16;28.10;40.80
75430;DHT22;64127;51.488;5.462;2023-06-04T14:46:49;28.10;40.60
75430;DHT22;64127;51.488;5.462;2023-06-04T14:49:22;28.10;40.60
75430;DHT22;64127;51.488;5.462;2023-06-04T14:51:54;28.10;40.60
75430;DHT22;64127;51.488;5.462;2023-06-04T14:54:26;28.10;40.60
75430;DHT22;64127;51.488;5.462;2023-06-04T14:56:58;28.20;40.50
75430;DHT22;64127;51.488;5.462;2023-06-04T14:59:30;28.20;40.50
75430;DHT22;64127;51.488;5.462;2023-06-04T15:02:02;28.10;40.40
75430;DHT22;64127;51.488;5.462;2023-06-04T15:04:35;28.10;40.40
75430;DHT22;64127;51.488;5.462;2023-06-04T15:07:08;28.10;40.40
75430;DHT22;64127;51.488;5.462;2023-06-04T15:09:41;28.10;40.50
75430;DHT22;64127;51.488;5.462;2023-06-04T15:12:14;28.10;40.30
75430;DHT22;64127;51.488;5.462;2023-06-04T15:14:47;28.10;40.30
75430;DHT22;64127;51.488;5.462;2023-06-04T15:17:19;28.10;40.40
75430;DHT22;64127;51.488;5.462;2023-06-04T15:19:52;28.10;40.40
75430;DHT22;64127;51.488;5.462;2023-06-04T15:22:24;28.10;40.40
75430;DHT22;64127;51.488;5.462;2023-06-04T15:24:57;28.10;40.40
75430;DHT22;64127;51.488;5.462;2023-06-04T15:27:29;28.10;40.40
75430;DHT22;64127;51.488;5.462;2023-06-04T15:30:02;28.10;40.40
75430;DHT22;64127;51.488;5.462;2023-06-04T15:32:34;28.10;40.50
75430;DHT22;64127;51.488;5.462;2023-06-04T15:35:07;28.10;40.60
75430;DHT22;64127;51.488;5.462;2023-06-04T15:37:39;28.10;40.60
75430;DHT22;64127;51.488;5.462;2023-06-04T15:40:11;28.10;40.80
75430;DHT22;64127;51.488;5.462;2023-06-04T15:42:43;28.10;40.90
75430;DHT22;64127;51.488;5.462;2023-06-04T15:45:15;28.00;40.90
75430;DHT22;64127;51.488;5.462;2023-06-04T15:47:47;27.90;40.80
75430;DHT22;64127;51.488;5.462;2023-06-04T15:50:19;27.90;40.90
75430;DHT22;64127;51.488;5.462;2023-06-04T15:52:52;27.80;40.80
75430;DHT22;64127;51.488;5.462;2023-06-04T15:55:24;27.70;40.80
75430;DHT22;64127;51.488;5.462;2023-06-04T15:57:56;27.70;41.00
75430;DHT22;64127;51.488;5.462;2023-06-04T16:00:28;27.70;41.00
75430;DHT22;64127;51.488;5.462;2023-06-04T16:03:00;27.70;41.20
75430;DHT22;64127;51.488;5.462;2023-06-04T16:05:32;27.60;41.10
75430;DHT22;64127;51.488;5.462;2023-06-04T16:08:04;27.50;41.20
75430;DHT22;64127;51.488;5.462;2023-06-04T16:10:37;27.60;41.50
75430;DHT22;64127;51.488;5.462;2023-06-04T16:13:09;27.50;41.40
75430;DHT22;64127;51.488;5.462;2023-06-04T16:15:41;27.50;41.40